X  Sluiten METAR luchtvaart weer gegevens      LGRX Patras Araxos Agamemnon Airport
Temperatuur
26°C Temperatuur
12°C Dauwpunt
42% Vochtigheid



Wind
8 MPH
13 KM/U
4 M/S
7 KTS



10°
N
Huidig weer

Wat bewolking Wat bewolking
Luchtdruk 1022.01 (hPa) - 30.18 (inHg)
Zicht 6 (mijl) - 9.7 (km)
Vliegveld
Vliegveld code LGRX

Locatie : Patras Araxos Agamemnon Airport
Afstand: 108 (mi)

Metar:
LGRX 130950Z 01007KT 9999 FEW025 26/12 Q1022

Tijd: 13-04-2024 12:50 EEST